Time;durP1;ratioP1;P1;durP2;ratioP2;P2;SDS_P1;SDS_P2;PMS_P1;PMS_P2;Temp;Humidity;BMP_temperature;BMP_pressure;BME280_temperature;BME280_humidity;BME280_pressure;Samples;Min_cycle;Max_cycle;Signal;HPM_P1;HPM_P2
2021/10/11 00:01:55;;;;;;;14.63;13.10;;;6.10;78.10;;;;;;6219871;28;20417;-77
2021/10/11 00:04:58;;;;;;;17.25;13.57;;;6.10;77.50;;;;;;6220392;28;20438;-77
2021/10/11 00:08:00;;;;;;;14.63;12.93;;;6.10;78.00;;;;;;6220967;28;20436;-77
2021/10/11 00:11:02;;;;;;;17.25;12.85;;;6.10;78.10;;;;;;6220065;28;20447;-77
2021/10/11 00:14:04;;;;;;;17.00;13.05;;;6.00;77.90;;;;;;6220432;28;20784;-77
2021/10/11 00:17:05;;;;;;;16.08;13.90;;;6.00;78.00;;;;;;6220160;28;20518;-77
2021/10/11 00:20:09;;;;;;;14.13;12.70;;;5.90;78.40;;;;;;6205331;28;20509;-77
2021/10/11 00:23:11;;;;;;;15.07;13.50;;;5.90;78.30;;;;;;6211406;28;20429;-77
2021/10/11 00:26:13;;;;;;;15.17;12.47;;;5.90;78.20;;;;;;6225306;28;20876;-77
2021/10/11 00:29:15;;;;;;;15.20;12.57;;;5.90;78.30;;;;;;6224871;28;20440;-77
2021/10/11 00:32:17;;;;;;;13.80;12.40;;;5.90;78.00;;;;;;6225542;28;20861;-77
2021/10/11 00:35:20;;;;;;;13.27;11.93;;;5.90;78.10;;;;;;6225061;28;20413;-77
2021/10/11 00:38:22;;;;;;;14.63;13.02;;;5.80;78.00;;;;;;6224724;28;20785;-77
2021/10/11 00:41:27;;;;;;;14.68;13.18;;;5.80;77.90;;;;;;6224810;28;20408;-77
2021/10/11 00:44:29;;;;;;;15.32;12.80;;;5.70;78.10;;;;;;6205273;23;20963;-77
2021/10/11 00:47:46;;;;;;;16.00;12.32;;;5.80;77.90;;;;;;6176675;28;20435;-77
2021/10/11 00:50:51;;;;;;;13.18;11.80;;;5.70;78.10;;;;;;6196979;28;20485;-76
2021/10/11 00:53:53;;;;;;;12.77;11.55;;;5.60;78.30;;;;;;6215343;28;20418;-76
2021/10/11 00:56:55;;;;;;;13.45;12.10;;;5.60;77.80;;;;;;6201178;28;20438;-77
2021/10/11 00:59:57;;;;;;;13.27;11.13;;;5.60;77.90;;;;;;6187717;28;20504;-77
2021/10/11 01:02:59;;;;;;;14.32;12.82;;;5.50;77.90;;;;;;6190481;28;20428;-77
2021/10/11 01:06:02;;;;;;;13.17;11.83;;;5.50;77.80;;;;;;6184456;28;20453;-77
2021/10/11 01:09:04;;;;;;;12.48;11.13;;;5.50;77.90;;;;;;6176328;28;20444;-76
2021/10/11 01:12:06;;;;;;;26.10;12.48;;;5.50;78.00;;;;;;6176820;28;20631;-76
2021/10/11 01:15:08;;;;;;;35.17;14.43;;;5.60;78.10;;;;;;6176374;28;20420;-76
2021/10/11 01:18:10;;;;;;;23.50;18.00;;;5.70;79.00;;;;;;6176709;28;20424;-77
2021/10/11 01:21:13;;;;;;;18.70;15.25;;;5.80;80.50;;;;;;6163442;28;20476;-77
2021/10/11 01:24:15;;;;;;;16.90;14.18;;;5.70;79.80;;;;;;6152978;28;20445;-77
2021/10/11 01:27:17;;;;;;;20.50;15.13;;;5.70;79.40;;;;;;6152263;28;20426;-77
2021/10/11 01:30:19;;;;;;;17.10;15.32;;;5.70;79.70;;;;;;6151881;28;20628;-77
2021/10/11 01:33:21;;;;;;;18.15;15.63;;;5.60;79.40;;;;;;6154717;28;20427;-77
2021/10/11 01:36:25;;;;;;;16.27;14.57;;;5.60;79.30;;;;;;6176710;28;20435;-77
2021/10/11 01:39:26;;;;;;;19.15;15.32;;;5.50;79.10;;;;;;6175069;28;20428;-77
2021/10/11 01:42:28;;;;;;;17.33;14.15;;;5.60;79.10;;;;;;6175501;28;20424;-77
2021/10/11 01:45:30;;;;;;;17.20;14.43;;;5.60;78.70;;;;;;6175801;28;20495;-76
2021/10/11 01:48:31;;;;;;;18.02;14.00;;;5.60;78.50;;;;;;6175798;28;20448;-76
2021/10/11 01:51:35;;;;;;;15.10;13.07;;;5.60;78.00;;;;;;6207753;28;20443;-76
2021/10/11 01:54:36;;;;;;;18.05;14.35;;;5.60;78.30;;;;;;6224004;28;20436;-76
2021/10/11 01:57:38;;;;;;;19.75;14.25;;;5.60;78.50;;;;;;6224194;28;20423;-76
2021/10/11 02:00:40;;;;;;;17.65;14.57;;;5.60;78.50;;;;;;6223289;28;20433;-76
2021/10/11 02:03:42;;;;;;;15.23;13.38;;;5.50;79.50;;;;;;6223489;28;20847;-76
2021/10/11 02:06:45;;;;;;;18.53;14.33;;;5.60;79.30;;;;;;6223605;28;20427;-76
2021/10/11 02:09:48;;;;;;;16.15;13.38;;;5.50;79.00;;;;;;6223229;28;20894;-76
2021/10/11 02:12:50;;;;;;;15.45;13.65;;;5.50;78.80;;;;;;6223728;28;20467;-76
2021/10/11 02:15:52;;;;;;;13.77;12.10;;;5.40;78.40;;;;;;6223489;28;20530;-76
2021/10/11 02:18:54;;;;;;;15.48;12.43;;;5.30;78.60;;;;;;6221918;28;20500;-76
2021/10/11 02:21:57;;;;;;;16.58;13.30;;;5.30;78.60;;;;;;6204770;28;20781;-77
2021/10/11 02:24:59;;;;;;;17.45;13.43;;;5.20;78.60;;;;;;6226801;28;20447;-76
2021/10/11 02:28:00;;;;;;;14.38;11.60;;;5.20;78.80;;;;;;6224084;28;20928;-76
2021/10/11 02:31:02;;;;;;;13.65;12.25;;;5.20;78.60;;;;;;6223019;28;20413;-76
2021/10/11 02:34:04;;;;;;;14.60;12.70;;;5.10;78.10;;;;;;6222745;28;20425;-76
2021/10/11 02:37:07;;;;;;;14.82;12.38;;;5.00;77.90;;;;;;6223225;28;20508;-77
2021/10/11 02:40:10;;;;;;;15.98;12.57;;;5.00;78.30;;;;;;6222464;28;20440;-77
2021/10/11 02:43:11;;;;;;;17.75;13.77;;;5.00;78.30;;;;;;6221457;28;20914;-77
2021/10/11 02:46:13;;;;;;;14.40;12.85;;;4.90;78.00;;;;;;6222617;28;20938;-76
2021/10/11 02:49:15;;;;;;;16.35;12.68;;;4.80;78.20;;;;;;6218065;28;20483;-77
2021/10/11 02:52:18;;;;;;;14.68;12.52;;;4.80;78.10;;;;;;6206254;28;20915;-76
2021/10/11 02:55:20;;;;;;;17.35;13.38;;;4.80;78.80;;;;;;6197997;28;20414;-76
2021/10/11 02:58:22;;;;;;;16.27;12.55;;;4.80;80.30;;;;;;6197758;28;20500;-77
2021/10/11 03:01:24;;;;;;;14.38;12.65;;;4.80;79.70;;;;;;6197826;28;20506;-77
2021/10/11 03:04:26;;;;;;;13.60;12.23;;;4.70;79.00;;;;;;6198810;28;20521;-77
2021/10/11 03:07:29;;;;;;;14.70;13.20;;;4.70;78.50;;;;;;6197711;28;20933;-76
2021/10/11 03:10:31;;;;;;;15.10;13.40;;;4.70;78.80;;;;;;6197756;28;20566;-76
2021/10/11 03:13:32;;;;;;;16.27;14.05;;;4.70;79.50;;;;;;6197644;28;20769;-77
2021/10/11 03:16:34;;;;;;;14.25;12.85;;;4.80;79.30;;;;;;6198161;28;20840;-76
2021/10/11 03:19:36;;;;;;;13.05;11.23;;;4.80;80.40;;;;;;6193832;28;20414;-77
2021/10/11 03:22:39;;;;;;;15.55;13.48;;;4.90;78.60;;;;;;6205541;28;20453;-77
2021/10/11 03:25:41;;;;;;;14.15;12.65;;;4.90;79.50;;;;;;6181297;28;20451;-76
2021/10/11 03:28:43;;;;;;;17.40;13.23;;;5.00;81.40;;;;;;6203112;28;20449;-76
2021/10/11 03:31:45;;;;;;;19.35;16.35;;;5.10;81.50;;;;;;6202392;28;20490;-75
2021/10/11 03:34:47;;;;;;;25.33;16.65;;;5.20;81.50;;;;;;6200854;28;20481;-77
2021/10/11 03:37:50;;;;;;;26.25;16.05;;;5.40;82.00;;;;;;6199102;28;20426;-77
2021/10/11 03:40:52;;;;;;;34.97;16.73;;;5.50;82.10;;;;;;6198906;28;20457;-76
2021/10/11 03:43:53;;;;;;;27.77;16.40;;;5.70;82.30;;;;;;6197719;28;20422;-76
2021/10/11 03:46:55;;;;;;;64.85;16.88;;;5.70;82.30;;;;;;6197807;28;20422;-77
2021/10/11 03:49:57;;;;;;;25.63;14.90;;;5.70;81.00;;;;;;6200630;28;20413;-77
2021/10/11 03:53:00;;;;;;;24.15;16.77;;;5.70;81.10;;;;;;6213331;28;20502;-76
2021/10/11 03:56:02;;;;;;;21.15;13.80;;;5.70;81.00;;;;;;6222264;28;20429;-77
2021/10/11 03:59:03;;;;;;;55.30;13.13;;;5.80;81.20;;;;;;6220929;28;20791;-77
2021/10/11 04:02:05;;;;;;;33.22;14.70;;;5.70;79.60;;;;;;6221409;28;20417;-77
2021/10/11 04:05:08;;;;;;;98.68;17.65;;;5.50;79.60;;;;;;6221857;28;20436;-76
2021/10/11 04:08:13;;;;;;;34.97;15.82;;;5.50;79.90;;;;;;6221465;28;21095;-77
2021/10/11 04:11:23;;;;;;;69.55;15.82;;;5.50;80.10;;;;;;6220928;28;21071;-77
2021/10/11 04:14:26;;;;;;;27.17;15.07;;;5.50;79.80;;;;;;6220752;28;20423;-77
2021/10/11 04:17:28;;;;;;;52.55;15.60;;;5.30;80.00;;;;;;6220986;28;20488;-77
2021/10/11 04:20:30;;;;;;;73.53;15.25;;;5.20;80.50;;;;;;6214438;28;21711;-76
2021/10/11 04:23:33;;;;;;;104.18;17.30;;;5.10;80.20;;;;;;6208509;28;20596;-76
2021/10/11 04:26:35;;;;;;;49.72;16.40;;;5.00;80.40;;;;;;6195832;28;20414;-74
2021/10/11 04:29:38;;;;;;;17.70;15.13;;;4.90;81.30;;;;;;6196437;28;20418;-76
2021/10/11 04:32:39;;;;;;;16.50;14.68;;;4.90;81.80;;;;;;6196723;28;20962;-76
2021/10/11 04:35:41;;;;;;;17.17;14.37;;;4.90;81.70;;;;;;6196548;28;20436;-77
2021/10/11 04:38:44;;;;;;;16.63;14.17;;;4.90;81.00;;;;;;6195500;28;20500;-76
2021/10/11 04:41:46;;;;;;;16.00;14.23;;;4.80;81.60;;;;;;6196199;28;20417;-76
2021/10/11 04:44:48;;;;;;;15.63;14.13;;;4.80;81.70;;;;;;6196925;28;20503;-75
2021/10/11 04:47:50;;;;;;;14.20;12.70;;;4.90;82.00;;;;;;6196347;28;20418;-76
2021/10/11 04:50:51;;;;;;;18.13;12.20;;;4.90;80.80;;;;;;6204336;28;20411;-76
2021/10/11 04:53:54;;;;;;;14.60;12.88;;;4.80;80.00;;;;;;6218343;28;20781;-76
2021/10/11 04:56:56;;;;;;;14.23;12.77;;;4.80;80.70;;;;;;6220387;28;20440;-76
2021/10/11 04:59:58;;;;;;;13.82;12.10;;;4.70;81.00;;;;;;6220965;28;20443;-76
2021/10/11 05:03:00;;;;;;;14.32;12.75;;;4.70;80.80;;;;;;6220470;28;20413;-76
2021/10/11 05:06:01;;;;;;;15.90;12.50;;;4.80;80.60;;;;;;6220761;28;20914;-76
2021/10/11 05:09:04;;;;;;;14.27;12.77;;;4.80;81.20;;;;;;6225130;28;20613;-75
2021/10/11 05:12:07;;;;;;;13.77;12.38;;;4.80;80.80;;;;;;6225293;28;21096;-76
2021/10/11 05:15:09;;;;;;;14.27;12.77;;;4.80;80.70;;;;;;6225228;28;20412;-75
2021/10/11 05:18:10;;;;;;;16.52;14.02;;;4.80;79.90;;;;;;6225191;28;20413;-76
2021/10/11 05:21:12;;;;;;;16.73;14.55;;;4.80;80.30;;;;;;6212801;28;20441;-76
2021/10/11 05:24:16;;;;;;;17.25;15.45;;;4.80;80.20;;;;;;6220711;28;20437;-76
2021/10/11 05:27:19;;;;;;;17.02;15.20;;;4.80;79.90;;;;;;6181069;28;20420;-76
2021/10/11 05:30:21;;;;;;;17.58;15.27;;;5.00;80.70;;;;;;6175969;28;20433;-76
2021/10/11 05:33:23;;;;;;;16.37;14.77;;;4.80;80.70;;;;;;6175875;28;20422;-77
2021/10/11 05:36:24;;;;;;;14.83;13.23;;;4.80;80.90;;;;;;6176187;28;20996;-76
2021/10/11 05:39:28;;;;;;;16.00;13.55;;;4.90;81.10;;;;;;6175598;28;20420;-76
2021/10/11 05:42:29;;;;;;;16.97;14.37;;;5.00;81.10;;;;;;6175500;28;20511;-76
2021/10/11 05:45:31;;;;;;;18.67;15.17;;;5.10;81.50;;;;;;6175804;28;20506;-76
2021/10/11 05:48:33;;;;;;;20.60;16.52;;;5.20;81.90;;;;;;6175919;28;20448;-76
2021/10/11 05:51:35;;;;;;;23.63;18.00;;;5.30;82.20;;;;;;6206017;28;20451;-76
2021/10/11 05:54:38;;;;;;;26.88;19.63;;;5.50;82.90;;;;;;6223683;28;20903;-76
2021/10/11 05:57:40;;;;;;;48.60;19.02;;;5.60;83.00;;;;;;6224155;28;20417;-76
2021/10/11 06:00:42;;;;;;;48.75;20.73;;;5.70;82.60;;;;;;6224590;28;20803;-76
2021/10/11 06:03:43;;;;;;;158.82;28.55;;;5.80;82.20;;;;;;6224105;28;20502;-77
2021/10/11 06:06:45;;;;;;;52.47;21.65;;;5.90;82.10;;;;;;6223421;28;20424;-76
2021/10/11 06:09:48;;;;;;;96.22;23.42;;;5.90;82.10;;;;;;6223442;28;20428;-76
2021/10/11 06:12:50;;;;;;;31.60;23.90;;;6.00;82.10;;;;;;6223619;28;20433;-76
2021/10/11 06:15:52;;;;;;;22.63;17.57;;;6.10;82.50;;;;;;6222994;28;20555;-76
2021/10/11 06:18:53;;;;;;;24.98;17.63;;;6.30;82.50;;;;;;6221315;28;20431;-76
2021/10/11 06:21:55;;;;;;;42.70;18.73;;;6.30;81.70;;;;;;6213119;28;20420;-76
2021/10/11 06:24:58;;;;;;;249.30;27.27;;;6.30;81.20;;;;;;6221223;28;20809;-76
2021/10/11 06:28:00;;;;;;;55.00;21.13;;;6.40;80.90;;;;;;6187505;28;21123;-76
2021/10/11 06:31:02;;;;;;;68.25;18.92;;;6.40;80.90;;;;;;6198697;28;20410;-75
2021/10/11 06:34:03;;;;;;;121.60;20.83;;;6.40;80.60;;;;;;6198904;28;20493;-76
2021/10/11 06:37:05;;;;;;;26.67;17.70;;;6.50;80.20;;;;;;6198674;28;20520;-76
2021/10/11 06:40:09;;;;;;;55.70;20.80;;;6.60;80.60;;;;;;6199028;28;20581;-76
2021/10/11 06:43:11;;;;;;;25.73;18.55;;;6.60;80.10;;;;;;6225923;23;20525;-78
2021/10/11 06:46:13;;;;;;;20.65;17.80;;;6.80;79.70;;;;;;6223985;28;20781;-78
2021/10/11 06:49:15;;;;;;;18.02;16.23;;;6.80;79.50;;;;;;6224025;28;20439;-79
2021/10/11 06:52:17;;;;;;;16.80;14.80;;;6.90;79.30;;;;;;6215908;28;20463;-79
2021/10/11 06:55:20;;;;;;;16.23;14.52;;;7.10;79.30;;;;;;6224362;28;20427;-79
2021/10/11 06:58:21;;;;;;;16.55;14.77;;;7.20;79.00;;;;;;6224768;28;20427;-80
2021/10/11 07:01:23;;;;;;;17.13;15.32;;;7.40;79.10;;;;;;6224914;28;20417;-79
2021/10/11 07:04:25;;;;;;;16.15;14.38;;;7.60;78.60;;;;;;6225550;28;20437;-79
2021/10/11 07:07:29;;;;;;;14.70;12.73;;;7.80;78.30;;;;;;6225049;28;20432;-80
2021/10/11 07:10:32;;;;;;;15.18;12.40;;;8.00;78.10;;;;;;6226680;28;20921;-79
2021/10/11 07:13:34;;;;;;;14.45;12.95;;;8.30;77.60;;;;;;6225691;28;20416;-79
2021/10/11 07:16:35;;;;;;;15.90;14.20;;;8.50;77.80;;;;;;6224771;28;20440;-79
2021/10/11 07:19:38;;;;;;;15.65;14.00;;;8.80;77.10;;;;;;6219785;28;20417;-79
2021/10/11 07:22:39;;;;;;;16.42;13.45;;;9.10;76.90;;;;;;6215854;28;20421;-79
2021/10/11 07:25:43;;;;;;;19.77;15.90;;;9.40;76.80;;;;;;6224193;28;20417;-79
2021/10/11 07:28:45;;;;;;;20.33;16.00;;;9.70;76.00;;;;;;6179238;28;20445;-77
2021/10/11 07:31:47;;;;;;;18.58;15.32;;;10.00;75.60;;;;;;6172727;28;20805;-77
2021/10/11 07:34:48;;;;;;;16.60;14.82;;;10.20;74.90;;;;;;6175215;28;20423;-79
2021/10/11 07:37:50;;;;;;;17.50;15.80;;;10.40;74.10;;;;;;6176708;28;20551;-78
2021/10/11 07:40:54;;;;;;;17.30;13.87;;;10.70;73.60;;;;;;6176018;28;20519;-78
2021/10/11 07:43:55;;;;;;;18.17;14.63;;;10.80;72.70;;;;;;6175848;28;20448;-78
2021/10/11 07:46:58;;;;;;;18.55;15.73;;;10.90;72.50;;;;;;6176519;28;20451;-79
2021/10/11 07:49:59;;;;;;;20.27;15.75;;;10.90;73.00;;;;;;6191802;28;20878;-79
2021/10/11 07:53:01;;;;;;;18.08;16.15;;;11.10;73.20;;;;;;6215783;28;20435;-79
2021/10/11 07:56:05;;;;;;;16.98;14.95;;;11.20;73.10;;;;;;6223498;28;20442;-79
2021/10/11 07:59:06;;;;;;;18.65;16.67;;;11.30;72.60;;;;;;6226823;28;20462;-80
2021/10/11 08:02:08;;;;;;;17.20;15.27;;;11.50;72.30;;;;;;6224714;28;20499;-78
2021/10/11 08:05:10;;;;;;;21.15;18.05;;;11.70;71.70;;;;;;6222126;28;20433;-78
2021/10/11 08:08:12;;;;;;;18.85;15.60;;;12.00;70.70;;;;;;6224300;28;20524;-78
2021/10/11 08:11:15;;;;;;;18.63;16.63;;;12.10;70.00;;;;;;6223569;28;20432;-79
2021/10/11 08:14:17;;;;;;;17.97;15.80;;;12.30;70.00;;;;;;6225009;28;20552;-79
2021/10/11 08:17:19;;;;;;;24.73;15.77;;;12.40;69.60;;;;;;6223871;28;20424;-78
2021/10/11 08:20:21;;;;;;;21.23;16.08;;;12.60;69.30;;;;;;6215848;28;20519;-78
2021/10/11 08:23:23;;;;;;;17.88;15.52;;;12.70;69.30;;;;;;6215709;28;20416;-78
2021/10/11 08:26:26;;;;;;;18.42;15.90;;;13.00;68.80;;;;;;6223846;28;20420;-78
2021/10/11 08:29:28;;;;;;;17.65;15.45;;;13.40;67.60;;;;;;6190110;28;20416;-78
2021/10/11 08:32:32;;;;;;;18.23;15.35;;;13.80;66.70;;;;;;6176758;28;20440;-78
2021/10/11 08:35:34;;;;;;;18.48;15.35;;;14.10;65.30;;;;;;6175991;28;20487;-79
2021/10/11 08:38:36;;;;;;;22.23;16.53;;;14.30;63.90;;;;;;6181192;28;20427;-79
2021/10/11 08:41:39;;;;;;;20.98;17.50;;;14.20;63.30;;;;;;6174144;28;20423;-79
2021/10/11 08:44:41;;;;;;;17.98;16.13;;;14.20;64.00;;;;;;6178822;28;20439;-80
2021/10/11 08:47:43;;;;;;;19.98;17.05;;;14.10;64.20;;;;;;6180826;28;20499;-79
2021/10/11 08:50:45;;;;;;;20.98;16.90;;;14.10;64.70;;;;;;6201063;28;20425;-78
2021/10/11 08:53:46;;;;;;;22.70;17.67;;;14.20;64.50;;;;;;6222272;28;20483;-78
2021/10/11 08:56:50;;;;;;;19.13;16.40;;;14.20;64.80;;;;;;6227391;28;20433;-79
2021/10/11 08:59:53;;;;;;;21.38;18.95;;;14.10;65.00;;;;;;6229366;28;20527;-80
2021/10/11 09:02:57;;;;;;;22.23;19.00;;;14.20;65.30;;;;;;6234502;28;20789;-80
2021/10/11 09:06:04;;;;;;;21.75;19.13;;;14.40;65.30;;;;;;6226382;28;20484;-79
2021/10/11 09:09:11;;;;;;;21.25;18.83;;;14.60;65.10;;;;;;6223629;28;20973;-79
2021/10/11 09:12:18;;;;;;;24.42;18.85;;;14.90;63.40;;;;;;6225863;28;20901;-78
2021/10/11 09:15:20;;;;;;;20.95;18.85;;;15.20;62.90;;;;;;6226920;28;20413;-78
2021/10/11 09:18:32;;;;;;;23.70;19.90;;;15.50;61.50;;;;;;6225410;28;20496;-78
2021/10/11 09:21:35;;;;;;;20.45;18.02;;;15.60;61.20;;;;;;6213547;28;20452;-79
2021/10/11 09:24:37;;;;;;;21.45;19.20;;;15.70;60.60;;;;;;6225717;28;20524;-78
2021/10/11 09:27:49;;;;;;;22.33;18.73;;;15.70;60.80;;;;;;6225137;28;20419;-78
2021/10/11 09:30:50;;;;;;;20.48;18.38;;;16.00;60.50;;;;;;6224273;28;20922;-79
2021/10/11 09:34:00;;;;;;;21.23;18.77;;;16.30;59.40;;;;;;6224744;28;20413;-79
2021/10/11 09:37:04;;;;;;;20.90;18.70;;;16.70;58.70;;;;;;6224838;28;20436;-79
2021/10/11 09:40:07;;;;;;;19.85;17.90;;;16.70;58.00;;;;;;6225620;28;20437;-79
2021/10/11 09:43:14;;;;;;;20.90;18.80;;;16.60;57.20;;;;;;6223985;28;20416;-78
2021/10/11 09:46:18;;;;;;;23.25;20.70;;;16.50;57.50;;;;;;6224453;28;20417;-79
2021/10/11 09:49:20;;;;;;;20.88;18.67;;;16.40;57.80;;;;;;6220593;28;20418;-78
2021/10/11 09:52:22;;;;;;;20.05;17.88;;;16.20;59.10;;;;;;6215784;28;20445;-78
2021/10/11 09:55:24;;;;;;;21.25;18.95;;;15.90;60.60;;;;;;6223711;28;20427;-78
2021/10/11 09:58:27;;;;;;;19.13;17.13;;;16.10;60.80;;;;;;6224459;28;20494;-79
2021/10/11 10:01:31;;;;;;;19.63;17.30;;;16.40;59.50;;;;;;6223841;28;20560;-78
2021/10/11 10:04:38;;;;;;;19.90;17.85;;;16.70;58.30;;;;;;6224838;28;20442;-79
2021/10/11 10:07:44;;;;;;;22.35;18.70;;;17.00;57.30;;;;;;6223716;28;20421;-79
2021/10/11 10:10:48;;;;;;;18.90;16.60;;;17.20;57.40;;;;;;6223722;28;20500;-79
2021/10/11 10:13:53;;;;;;;17.67;15.88;;;17.40;57.10;;;;;;6223967;28;20421;-78
2021/10/11 10:16:56;;;;;;;20.20;16.48;;;17.60;56.40;;;;;;6224146;28;20444;-79
2021/10/11 10:20:10;;;;;;;18.63;16.42;;;17.90;55.10;;;;;;6219637;28;20925;-78
2021/10/11 10:23:23;;;;;;;18.63;16.70;;;18.30;54.00;;;;;;6207738;28;20491;-79
2021/10/11 10:26:33;;;;;;;16.90;15.30;;;18.70;52.60;;;;;;6223391;28;20489;-79
2021/10/11 10:29:44;;;;;;;18.20;16.30;;;19.00;51.10;;;;;;6223923;28;20502;-79
2021/10/11 10:32:57;;;;;;;21.05;17.65;;;19.10;51.00;;;;;;6224439;28;20469;-79
2021/10/11 10:35:59;;;;;;;17.75;15.88;;;18.90;51.30;;;;;;6223883;28;20495;-78
2021/10/11 10:39:05;;;;;;;18.33;16.52;;;18.70;51.70;;;;;;6223053;28;20464;-78
2021/10/11 10:42:08;;;;;;;20.20;17.27;;;18.70;52.20;;;;;;6223223;28;20428;-78
2021/10/11 10:45:18;;;;;;;18.63;16.67;;;18.50;52.70;;;;;;6223099;28;20448;-78
2021/10/11 10:48:21;;;;;;;21.52;16.65;;;18.70;52.00;;;;;;6223882;28;20478;-79
2021/10/11 10:51:23;;;;;;;18.55;14.73;;;18.90;50.90;;;;;;6211121;28;20429;-78
2021/10/11 10:54:36;;;;;;;18.23;15.23;;;19.00;50.40;;;;;;6223207;28;20446;-78
2021/10/11 10:57:37;;;;;;;18.77;15.60;;;18.80;51.30;;;;;;6222974;28;20492;-78
2021/10/11 11:00:41;;;;;;;17.50;15.48;;;18.80;50.50;;;;;;6223332;28;20910;-79
2021/10/11 11:03:43;;;;;;;21.92;16.65;;;19.00;50.10;;;;;;6223464;28;20421;-79
2021/10/11 11:06:45;;;;;;;22.73;15.15;;;19.20;49.80;;;;;;6222789;28;20420;-79
2021/10/11 11:09:47;;;;;;;18.98;17.02;;;19.40;48.50;;;;;;6221777;28;20486;-79
2021/10/11 11:12:53;;;;;;;18.65;16.67;;;19.20;48.50;;;;;;6224091;28;20436;-79
2021/10/11 11:15:56;;;;;;;21.52;17.27;;;19.00;49.60;;;;;;6222799;28;20490;-77
2021/10/11 11:18:59;;;;;;;19.73;17.83;;;19.00;49.60;;;;;;6222690;28;20764;-78
2021/10/11 11:22:01;;;;;;;19.67;17.58;;;19.00;49.60;;;;;;6216800;28;20928;-78
2021/10/11 11:25:04;;;;;;;20.17;16.30;;;18.90;50.20;;;;;;6222370;28;20436;-77
2021/10/11 11:28:08;;;;;;;18.88;16.88;;;19.00;50.50;;;;;;6222986;28;20440;-78
2021/10/11 11:31:13;;;;;;;21.55;16.08;;;18.90;50.70;;;;;;6222445;28;20464;-78
2021/10/11 11:34:15;;;;;;;19.40;16.50;;;18.80;51.50;;;;;;6222284;28;20468;-78
2021/10/11 11:37:17;;;;;;;20.33;16.77;;;18.70;51.70;;;;;;6222369;28;20417;-77
2021/10/11 11:40:20;;;;;;;19.90;16.15;;;18.80;51.90;;;;;;6221395;28;20932;-78
2021/10/11 11:43:23;;;;;;;18.70;16.30;;;18.90;51.40;;;;;;6220972;28;20419;-77
2021/10/11 11:46:26;;;;;;;21.52;16.85;;;18.90;51.60;;;;;;6221076;28;20429;-78
2021/10/11 11:49:28;;;;;;;19.27;16.43;;;18.90;50.90;;;;;;6217337;28;20523;-78
2021/10/11 11:52:34;;;;;;;16.70;14.48;;;18.90;50.90;;;;;;6213043;28;20984;-77
2021/10/11 11:55:37;;;;;;;17.73;15.13;;;18.70;51.20;;;;;;6220742;28;20416;-77
2021/10/11 11:58:43;;;;;;;20.73;14.93;;;18.60;52.50;;;;;;6220081;28;21033;-76
2021/10/11 12:01:46;;;;;;;23.10;16.23;;;18.40;52.70;;;;;;6221337;28;20469;-76
2021/10/11 12:04:50;;;;;;;19.02;16.00;;;18.30;52.80;;;;;;6221435;28;20906;-78
2021/10/11 12:07:52;;;;;;;20.75;15.70;;;18.10;53.70;;;;;;6220845;28;20462;-78
2021/10/11 12:10:59;;;;;;;17.67;15.23;;;18.00;53.40;;;;;;6220699;28;20960;-78
2021/10/11 12:14:02;;;;;;;16.17;14.50;;;17.90;54.20;;;;;;6220608;28;20462;-78
2021/10/11 12:17:07;;;;;;;16.27;14.65;;;17.90;54.70;;;;;;6220876;28;20440;-79
2021/10/11 12:20:10;;;;;;;20.67;16.13;;;17.80;55.20;;;;;;6218449;28;20851;-78
2021/10/11 12:23:13;;;;;;;25.40;16.05;;;17.90;55.00;;;;;;6205328;28;20801;-79
2021/10/11 12:26:14;;;;;;;17.40;15.23;;;17.80;54.80;;;;;;6221020;28;20425;-77
2021/10/11 12:29:17;;;;;;;19.45;16.08;;;17.80;55.20;;;;;;6220480;28;20487;-78
2021/10/11 12:32:29;;;;;;;19.00;16.10;;;17.70;55.10;;;;;;6220742;28;20478;-77
2021/10/11 12:35:31;;;;;;;18.52;15.82;;;17.70;55.90;;;;;;6222217;28;20553;-79
2021/10/11 12:38:38;;;;;;;18.57;16.57;;;17.70;55.90;;;;;;6220774;28;20431;-77
2021/10/11 12:41:42;;;;;;;20.58;17.38;;;17.70;55.20;;;;;;6220219;28;20584;-78
2021/10/11 12:44:46;;;;;;;20.00;16.25;;;17.60;55.00;;;;;;6231546;23;20438;-77
2021/10/11 12:47:49;;;;;;;21.63;16.30;;;17.60;55.40;;;;;;6196013;28;20547;-78
2021/10/11 12:50:55;;;;;;;20.38;16.90;;;17.50;55.90;;;;;;6209053;28;20462;-78
2021/10/11 12:54:05;;;;;;;20.83;17.67;;;17.50;56.30;;;;;;6191500;28;20624;-78
2021/10/11 12:57:07;;;;;;;23.25;17.75;;;17.40;56.50;;;;;;6172096;28;20439;-78
2021/10/11 13:00:12;;;;;;;21.48;19.13;;;17.30;57.00;;;;;;6172182;28;20446;-78
2021/10/11 13:03:15;;;;;;;18.98;16.98;;;17.20;56.30;;;;;;6172054;28;20910;-77
2021/10/11 13:06:21;;;;;;;20.33;15.90;;;17.10;57.60;;;;;;6172717;28;20432;-77
2021/10/11 13:09:23;;;;;;;18.63;16.52;;;17.00;58.50;;;;;;6171560;28;20447;-78
2021/10/11 13:12:25;;;;;;;19.52;17.52;;;16.90;58.00;;;;;;6172134;28;21020;-78
2021/10/11 13:15:27;;;;;;;22.17;16.80;;;16.90;58.80;;;;;;6171490;28;20435;-78
2021/10/11 13:18:30;;;;;;;21.27;17.43;;;16.90;59.60;;;;;;6171051;28;20490;-77
2021/10/11 13:21:33;;;;;;;21.33;18.30;;;16.80;59.70;;;;;;6163163;28;20443;-77
2021/10/11 13:24:35;;;;;;;39.00;32.05;;;16.80;59.00;;;;;;6171629;28;20575;-78
2021/10/11 13:27:37;;;;;;;51.00;46.22;;;16.70;59.10;;;;;;6171961;28;20420;-78
2021/10/11 13:31:03;;;;;;;24.77;21.30;;;16.70;59.10;;;;;;6175197;28;20428;-77
2021/10/11 13:41:41;;;;;;;26.98;21.67;;;16.80;59.80;;;;;;6175297;28;20515;-77
2021/10/11 14:28:08;;;;;;;23.58;20.80;;;16.70;61.10;;;;;;6174552;28;20462;-77
2021/10/11 14:31:20;;;;;;;27.95;22.70;;;16.60;61.50;;;;;;6173808;28;20435;-77
2021/10/11 14:34:45;;;;;;;23.75;20.95;;;16.50;61.50;;;;;;6173865;28;20882;-77
2021/10/11 15:58:30;;;;;;;127.35;107.65;;;15.60;67.30;;;;;;6117420;28;20415;-77
2021/10/11 16:01:42;;;;;;;28.92;23.13;;;15.60;68.60;;;;;;6167986;28;20425;-77
2021/10/11 16:04:45;;;;;;;34.65;26.50;;;15.60;68.10;;;;;;6148776;28;20450;-77
2021/10/11 16:07:47;;;;;;;99.78;84.38;;;15.50;69.50;;;;;;6148499;28;20422;-77
2021/10/11 16:10:49;;;;;;;144.35;128.45;;;15.50;70.50;;;;;;6148331;28;20425;-77
2021/10/11 16:13:51;;;;;;;175.43;150.23;;;15.50;69.80;;;;;;6148527;28;20418;-77
2021/10/11 16:16:53;;;;;;;31.17;23.48;;;15.50;70.30;;;;;;6148707;29;20520;-77
2021/10/11 16:19:56;;;;;;;25.88;21.73;;;15.50;69.80;;;;;;6144636;28;20426;-78
2021/10/11 16:22:58;;;;;;;24.42;21.15;;;15.50;69.70;;;;;;6156952;28;20425;-77
2021/10/11 16:26:00;;;;;;;23.70;20.77;;;15.50;69.60;;;;;;6148811;28;20446;-77
2021/10/11 16:29:02;;;;;;;25.42;20.15;;;15.50;70.00;;;;;;6148815;28;20532;-76
2021/10/11 16:32:06;;;;;;;134.65;92.40;;;15.50;70.00;;;;;;6148756;29;20439;-78
2021/10/11 16:35:09;;;;;;;26.97;22.53;;;15.50;78.10;;;;;;6148746;28;20730;-78
2021/10/11 16:38:11;;;;;;;27.85;20.70;;;15.50;69.10;;;;;;6148317;28;21025;-77
2021/10/11 16:41:15;;;;;;;24.93;21.63;;;15.40;68.80;;;;;;6148400;28;20438;-77
2021/10/11 16:44:17;;;;;;;25.83;21.00;;;15.40;69.20;;;;;;6148253;28;20461;-78
2021/10/11 16:47:18;;;;;;;23.02;20.52;;;15.30;69.60;;;;;;6148188;28;20432;-78
2021/10/11 16:50:22;;;;;;;23.27;20.27;;;15.20;70.00;;;;;;6166708;28;20441;-76
2021/10/11 16:53:24;;;;;;;27.63;22.07;;;15.20;70.00;;;;;;6189830;28;20493;-78
2021/10/11 16:56:25;;;;;;;26.15;20.27;;;15.10;70.10;;;;;;6196486;28;20438;-78
2021/10/11 16:59:27;;;;;;;23.33;20.38;;;15.00;70.20;;;;;;6195376;28;20418;-78
2021/10/11 17:02:29;;;;;;;27.13;22.15;;;15.00;70.40;;;;;;6196133;28;20414;-77
2021/10/11 17:05:32;;;;;;;63.33;52.92;;;14.90;70.40;;;;;;6200541;28;20438;-76
2021/10/11 17:08:34;;;;;;;75.25;65.13;;;14.80;71.10;;;;;;6200851;28;20440;-78
2021/10/11 17:11:36;;;;;;;38.33;32.92;;;14.80;71.70;;;;;;6201015;28;20466;-77
2021/10/11 17:14:37;;;;;;;31.08;25.83;;;14.80;70.50;;;;;;6200752;28;20415;-76
2021/10/11 17:17:39;;;;;;;26.23;23.33;;;14.70;70.30;;;;;;6200605;28;20788;-78
2021/10/11 17:20:43;;;;;;;31.48;23.88;;;14.70;71.70;;;;;;6193527;28;20440;-78
2021/10/11 17:23:45;;;;;;;24.92;22.10;;;14.70;71.40;;;;;;6156100;28;20500;-77
2021/10/11 17:26:48;;;;;;;26.10;20.23;;;14.60;72.10;;;;;;6155387;28;21173;-78
2021/10/11 17:29:49;;;;;;;25.38;21.20;;;14.50;73.20;;;;;;6174477;28;20524;-77
2021/10/11 17:32:51;;;;;;;135.05;106.53;;;14.50;73.70;;;;;;6176264;28;20921;-77
2021/10/11 17:35:56;;;;;;;35.20;30.93;;;14.40;74.00;;;;;;6175484;28;20478;-77
2021/10/11 17:38:58;;;;;;;31.42;25.13;;;14.40;73.90;;;;;;6175177;28;20793;-77
2021/10/11 17:42:00;;;;;;;28.40;21.87;;;14.40;74.00;;;;;;6175630;28;20434;-77
2021/10/11 17:45:02;;;;;;;26.80;21.85;;;14.40;73.60;;;;;;6175025;28;20459;-77